Thunder radar more information blitzortung!


Radar de pluja more information rain snow radar


Visita la nostra xarxa de llocs de meteo:

Template documentation
and downloads

And another site



No particular awareness of the weather is required.    There are no Weather-warnings

Pagina Historial Weather Underground text

Diari Resum Desembre 14, 2017 Unitats:  Imperial    Mètric   Tant
« Previous Dia
SegĂźent Dia »
Diari Setmana Mensual Anual Personalitzada
  Maxima: Minima: Media:
Temperatura: TemperatureC °F 7.0 °F 11.5 °F
Punt de rosada: DewpointC °F -1.2 °F 4.3 °F
Humitat: Humidity % 56 % 61 %
Wind Speed: WindSpeedKMH mph 0.0 mph 12.3 mph
RĂ fegues de vent: WindSpeedGustKMH mph - -
Vent:- - SW
Pression baro: PressurehPa in 1005.0 in -
Precipitacions: 0.0 in    
Historical Graphs
 
 
Dades de taula per Desembre 14, 2017
Temps Temperatura Punt de rosada Pression baro Vent Wind Speed RĂ fegues de vent Humitat Rainfall Rate (Hourly)
TemperatureC °F DewpointC °F PressurehPa in Calm     Humidity % HourlyPrecipMM in
00:01 7.0 °F -1.2 °F 1017.8 in WSW 3.7 mph 3.7 mph 56 % 0.0 in
00:05 8.0 °F -0.3 °F 1015.8 in Calm   3.2 mph 56 % 0.0 in
00:06 7.8 °F -0.4 °F 1017.8 in West 5.6 mph 5.6 mph 56 % 0.0 in
00:15 8.0 °F -0.3 °F 1015.8 in NNE 1.6 mph 4.8 mph 56 % 0.0 in
00:25 8.1 °F -0.2 °F 1015.8 in North 4.8 mph 6.4 mph 56 % 0.0 in
00:35 8.2 °F -0.1 °F 1015.8 in NNW 3.2 mph 3.2 mph 56 % 0.0 in
00:45 7.9 °F -0.1 °F 1015.8 in North 3.2 mph 4.8 mph 57 % 0.0 in
00:55 7.9 °F -0.1 °F 1015.8 in NE 3.2 mph 6.4 mph 57 % 0.0 in
01:05 7.8 °F -0.2 °F 1015.8 in NE 1.6 mph 6.4 mph 57 % 0.0 in
01:15 7.9 °F -0.1 °F 1015.8 in NE 4.8 mph 4.8 mph 57 % 0.0 in
01:25 7.8 °F -0.2 °F 1015.8 in NE 3.2 mph 6.4 mph 57 % 0.0 in
01:35 7.8 °F -0.2 °F 1015.8 in NNE 4.8 mph 6.4 mph 57 % 0.0 in
01:45 7.6 °F -0.4 °F 1015.8 in North 8.0 mph 9.7 mph 57 % 0.0 in
01:55 7.6 °F -0.4 °F 1014.8 in NNE 1.6 mph 8.0 mph 57 % 0.0 in
02:05 7.6 °F -0.2 °F 1015.8 in NNE 1.6 mph 8.0 mph 58 % 0.0 in
02:15 7.5 °F -0.2 °F 1015.8 in East 3.2 mph 3.2 mph 58 % 0.0 in
02:25 7.4 °F -0.3 °F 1014.8 in East 1.6 mph 6.4 mph 58 % 0.0 in
02:35 7.4 °F -0.3 °F 1015.8 in NNE 1.6 mph 4.8 mph 58 % 0.0 in
02:45 7.3 °F -0.4 °F 1015.8 in SW 3.2 mph 4.8 mph 58 % 0.0 in
02:55 7.5 °F 0.0 °F 1014.8 in WSW 3.2 mph 9.7 mph 59 % 0.0 in
03:05 7.6 °F 0.1 °F 1015.8 in NNW 3.2 mph 3.2 mph 59 % 0.0 in
03:15 7.7 °F 0.2 °F 1015.8 in Calm   4.8 mph 59 % 0.0 in
03:25 7.9 °F 0.4 °F 1015.8 in NNE 1.6 mph 3.2 mph 59 % 0.0 in
03:35 8.0 °F 0.4 °F 1015.8 in Calm   4.8 mph 59 % 0.0 in
03:45 8.0 °F 0.7 °F 1015.8 in NNE 1.6 mph 4.8 mph 60 % 0.0 in
03:55 8.2 °F 0.7 °F 1015.8 in NE 4.8 mph 4.8 mph 59 % 0.0 in
04:05 8.4 °F 0.8 °F 1015.8 in NE 3.2 mph 4.8 mph 59 % 0.0 in
04:15 8.5 °F 1.2 °F 1015.8 in NE 1.6 mph 3.2 mph 60 % 0.0 in
04:25 8.7 °F 1.3 °F 1015.8 in ESE 3.2 mph 6.4 mph 60 % 0.0 in
10:29 8.9 °F 1.6 °F 1015.8 in SSE 3.7 mph 3.7 mph 60 % 0.0 in
10:30 8.9 °F 1.6 °F 1015.8 in SSW 3.7 mph 3.7 mph 60 % 0.0 in
10:31 9.0 °F 1.7 °F 1015.8 in WSW 3.7 mph 3.7 mph 60 % 0.0 in
10:36 9.3 °F 1.9 °F 1015.8 in North 7.4 mph 7.4 mph 60 % 0.0 in
10:41 9.6 °F 2.4 °F 1015.8 in WNW 9.3 mph 9.3 mph 61 % 0.0 in
10:43 9.6 °F 2.2 °F 1015.8 in West 4.2 mph 4.2 mph 60 % 0.0 in
10:44 9.6 °F 2.2 °F 1015.8 in WNW 3.7 mph 3.7 mph 60 % 0.0 in
10:47 9.6 °F 2.2 °F 1015.8 in ENE 3.7 mph 3.7 mph 60 % 0.0 in
10:52 9.6 °F 2.2 °F 1015.8 in NNE 5.6 mph 5.6 mph 60 % 0.0 in
10:57 9.6 °F 2.2 °F 1015.8 in East 3.7 mph 3.7 mph 60 % 0.0 in
10:59 9.6 °F 2.2 °F 1015.8 in ENE 6.4 mph 6.4 mph 60 % 0.0 in
11:02 9.6 °F 2.2 °F 1015.8 in ENE 3.2 mph   60 % 0.0 in
11:07 9.6 °F 1.9 °F 1015.8 in NW 7.4 mph 7.4 mph 59 % 0.0 in
11:10 9.6 °F 1.9 °F 1015.8 in NNE 3.7 mph 3.9 mph 59 % 0.0 in
11:12 9.7 °F 2.1 °F 1015.8 in NE 5.6 mph 5.6 mph 59 % 0.0 in
11:17 9.8 °F 2.4 °F 1015.8 in NNE 5.6 mph 5.6 mph 60 % 0.0 in
11:22 10.0 °F 2.3 °F 1015.8 in ENE 3.7 mph   59 % 0.0 in
11:23 10.0 °F 2.6 °F 1015.8 in ESE 7.4 mph 7.4 mph 60 % 0.0 in
11:25 10.2 °F 2.8 °F 1015.8 in NNE 5.6 mph 5.6 mph 60 % 0.0 in
11:29 10.6 °F 3.2 °F 1015.8 in SW 7.4 mph 7.4 mph 60 % 0.0 in
11:34 11.2 °F 3.9 °F 1015.8 in WSW 5.6 mph 5.6 mph 61 % 0.0 in
11:38 11.4 °F 4.2 °F 1015.8 in West 6.1 mph 6.1 mph 61 % 0.0 in
11:43 11.6 °F 4.6 °F 1015.8 in West 7.4 mph 7.4 mph 62 % 0.0 in
11:48 11.7 °F 4.7 °F 1015.8 in SW 14.8 mph 14.8 mph 62 % 0.0 in
11:49 11.7 °F 4.7 °F 1015.8 in WSW 14.8 mph 14.8 mph 62 % 0.0 in
11:53 11.8 °F 4.7 °F 1015.8 in West 7.9 mph 7.9 mph 62 % 0.0 in
11:58 11.9 °F 4.8 °F 1015.8 in WSW 13.0 mph 13.0 mph 62 % 0.0 in
12:02 11.9 °F 4.8 °F 1015.8 in West 13.0 mph 13.0 mph 62 % 0.0 in
12:03 11.9 °F 4.8 °F 1015.8 in SSW 13.0 mph 13.0 mph 62 % 0.0 in
12:08 12.0 °F 4.9 °F 1015.8 in WSW 13.0 mph 13.0 mph 62 % 0.0 in
12:13 12.0 °F 4.9 °F 1014.8 in SW 10.0 mph 10.0 mph 62 % 0.0 in
12:17 12.0 °F 4.9 °F 1014.8 in WSW 9.3 mph 9.3 mph 62 % 0.0 in
12:18 12.0 °F 4.9 °F 1014.8 in West 9.3 mph 9.3 mph 62 % 0.0 in
12:23 12.1 °F 5.1 °F 1014.8 in West 11.1 mph 11.1 mph 62 % 0.0 in
12:27 12.2 °F 5.1 °F 1014.8 in SW 13.0 mph 13.0 mph 62 % 0.0 in
12:32 12.4 °F 5.3 °F 1014.8 in WSW 13.0 mph 13.0 mph 62 % 0.0 in
12:37 12.5 °F 5.2 °F 1014.8 in WSW 22.2 mph 22.2 mph 61 % 0.0 in
12:40 12.5 °F 5.2 °F 1014.8 in West 20.9 mph 20.9 mph 61 % 0.0 in
12:42 12.6 °F 5.3 °F 1014.8 in WSW 24.1 mph 24.1 mph 61 % 0.0 in
12:47 12.6 °F 5.3 °F 1014.8 in West 13.0 mph 13.0 mph 61 % 0.0 in
12:52 12.7 °F 5.4 °F 1014.8 in West 15.8 mph 15.8 mph 61 % 0.0 in
12:53 12.7 °F 5.4 °F 1014.8 in West 14.8 mph 14.8 mph 61 % 0.0 in
12:57 12.7 °F 5.4 °F 1014.8 in WNW 13.0 mph 13.0 mph 61 % 0.0 in
13:02 12.8 °F 5.4 °F 1014.8 in West 14.8 mph 14.8 mph 61 % 0.0 in
13:10 12.8 °F 5.4 °F 1014.8 in WSW 18.5 mph 18.5 mph 61 % 0.0 in
13:15 12.8 °F 5.4 °F 1013.8 in West 21.7 mph 21.7 mph 61 % 0.0 in
13:20 12.8 °F 5.4 °F 1013.8 in West 13.0 mph 13.0 mph 61 % 0.0 in
13:22 12.8 °F 5.4 °F 1013.8 in WSW 9.3 mph 9.3 mph 61 % 0.0 in
13:25 12.8 °F 5.4 °F 1013.8 in WSW 16.9 mph 16.9 mph 61 % 0.0 in
13:34 12.8 °F 5.4 °F 1013.8 in WSW 16.9 mph 16.9 mph 61 % 0.0 in
13:35 12.8 °F 5.4 °F 1013.8 in WSW 16.9 mph 16.9 mph 61 % 0.0 in
13:38 12.8 °F 5.4 °F 1013.8 in WSW 16.9 mph 16.9 mph 61 % 0.0 in
13:43 12.8 °F 5.4 °F 1013.8 in WSW 16.9 mph 16.9 mph 61 % 0.0 in
13:48 12.8 °F 5.4 °F 1013.8 in WSW 16.9 mph 16.9 mph 61 % 0.0 in
13:50 12.8 °F 5.4 °F 1013.8 in WSW 16.9 mph 16.9 mph 61 % 0.0 in
13:55 12.8 °F 5.4 °F 1013.8 in WSW 16.9 mph 16.9 mph 61 % 0.0 in
14:00 12.8 °F 5.4 °F 1013.8 in WSW 16.9 mph 16.9 mph 61 % 0.0 in
14:04 12.8 °F 5.4 °F 1013.8 in WSW 16.9 mph 16.9 mph 61 % 0.0 in
14:05 12.8 °F 5.4 °F 1013.8 in WSW 16.9 mph 16.9 mph 61 % 0.0 in
14:10 12.8 °F 5.4 °F 1013.8 in WSW 16.9 mph 16.9 mph 61 % 0.0 in
14:13 12.8 °F 5.4 °F 1013.8 in WSW 16.9 mph 16.9 mph 61 % 0.0 in
14:15 12.8 °F 5.4 °F 1013.8 in WSW 16.9 mph 16.9 mph 61 % 0.0 in
14:20 12.8 °F 5.4 °F 1013.8 in WSW 16.9 mph 16.9 mph 61 % 0.0 in
14:25 12.8 °F 5.4 °F 1013.8 in WSW 16.9 mph 16.9 mph 61 % 0.0 in
14:28 12.8 °F 5.4 °F 1013.8 in WSW 16.9 mph 16.9 mph 61 % 0.0 in
14:30 12.8 °F 5.4 °F 1013.8 in WSW 16.9 mph 16.9 mph 61 % 0.0 in
14:35 12.8 °F 5.4 °F 1013.8 in WSW 16.9 mph 16.9 mph 61 % 0.0 in
14:40 12.8 °F 5.4 °F 1013.8 in WSW 16.9 mph 16.9 mph 61 % 0.0 in
14:45 12.8 °F 5.4 °F 1013.8 in WSW 16.9 mph 16.9 mph 61 % 0.0 in
14:50 12.8 °F 5.4 °F 1013.8 in WSW 16.9 mph 16.9 mph 61 % 0.0 in
14:55 12.8 °F 5.4 °F 1013.8 in WSW 16.9 mph 16.9 mph 61 % 0.0 in
15:00 12.8 °F 5.4 °F 1013.8 in WSW 16.9 mph 16.9 mph 61 % 0.0 in
15:05 12.8 °F 5.4 °F 1013.8 in WSW 16.9 mph 16.9 mph 61 % 0.0 in
15:07 12.8 °F 5.4 °F 1013.8 in WSW 16.9 mph 16.9 mph 61 % 0.0 in
15:10 12.8 °F 5.4 °F 1013.8 in WSW 16.9 mph 16.9 mph 61 % 0.0 in
15:15 12.8 °F 5.4 °F 1013.8 in WSW 16.9 mph 16.9 mph 61 % 0.0 in
15:20 12.8 °F 5.4 °F 1013.8 in WSW 16.9 mph 16.9 mph 61 % 0.0 in
15:28 12.8 °F 5.4 °F 1013.8 in WSW 16.9 mph 16.9 mph 61 % 0.0 in
15:33 12.8 °F 5.4 °F 1013.8 in WSW 16.9 mph 16.9 mph 61 % 0.0 in
15:38 12.8 °F 5.4 °F 1013.8 in WSW 16.9 mph 16.9 mph 61 % 0.0 in
15:43 12.8 °F 5.4 °F 1013.8 in WSW 16.9 mph 16.9 mph 61 % 0.0 in
15:48 12.8 °F 5.4 °F 1013.8 in WSW 16.9 mph 16.9 mph 61 % 0.0 in
15:50 12.8 °F 5.4 °F 1013.8 in WSW 16.9 mph 16.9 mph 61 % 0.0 in
15:53 12.8 °F 5.4 °F 1013.8 in WSW 16.9 mph 16.9 mph 61 % 0.0 in
15:58 12.8 °F 5.4 °F 1013.8 in WSW 16.9 mph 16.9 mph 61 % 0.0 in
16:02 12.8 °F 5.4 °F 1013.8 in WSW 16.9 mph 16.9 mph 61 % 0.0 in
16:03 12.8 °F 5.4 °F 1013.8 in WSW 16.9 mph 16.9 mph 61 % 0.0 in
16:04 12.8 °F 5.4 °F 1013.8 in WSW 16.9 mph 16.9 mph 61 % 0.0 in
16:08 12.8 °F 5.4 °F 1013.8 in WSW 16.9 mph 16.9 mph 61 % 0.0 in
16:13 12.8 °F 5.4 °F 1013.8 in WSW 16.9 mph 16.9 mph 61 % 0.0 in
16:15 12.8 °F 5.4 °F 1013.8 in WSW 16.9 mph 16.9 mph 61 % 0.0 in
16:20 12.8 °F 5.4 °F 1013.8 in WSW 16.9 mph 16.9 mph 61 % 0.0 in
16:25 12.8 °F 5.4 °F 1013.8 in WSW 16.9 mph 16.9 mph 61 % 0.0 in
16:28 12.8 °F 5.4 °F 1013.8 in WSW 16.9 mph 16.9 mph 61 % 0.0 in
16:33 12.8 °F 5.4 °F 1013.8 in WSW 16.9 mph 16.9 mph 61 % 0.0 in
16:38 12.8 °F 5.4 °F 1013.8 in WSW 16.9 mph 16.9 mph 61 % 0.0 in
16:43 12.8 °F 5.4 °F 1013.8 in WSW 16.9 mph 16.9 mph 61 % 0.0 in
16:45 12.8 °F 5.4 °F 1013.8 in WSW 16.9 mph 16.9 mph 61 % 0.0 in
16:50 12.8 °F 5.4 °F 1013.8 in WSW 16.9 mph 16.9 mph 61 % 0.0 in
16:55 12.8 °F 5.4 °F 1013.8 in WSW 16.9 mph 16.9 mph 61 % 0.0 in
17:00 12.8 °F 5.4 °F 1013.8 in WSW 16.9 mph 16.9 mph 61 % 0.0 in
17:05 12.8 °F 5.4 °F 1013.8 in WSW 16.9 mph 16.9 mph 61 % 0.0 in
17:10 12.8 °F 5.4 °F 1013.8 in WSW 16.9 mph 16.9 mph 61 % 0.0 in
17:12 12.8 °F 5.4 °F 1013.8 in WSW 16.9 mph 16.9 mph 61 % 0.0 in
17:17 12.8 °F 5.4 °F 1013.8 in WSW 16.9 mph 16.9 mph 61 % 0.0 in
17:22 12.8 °F 5.4 °F 1013.8 in WSW 16.9 mph 16.9 mph 61 % 0.0 in
17:25 12.8 °F 5.4 °F 1013.8 in WSW 16.9 mph 16.9 mph 61 % 0.0 in
17:30 12.8 °F 5.4 °F 1013.8 in WSW 16.9 mph 16.9 mph 61 % 0.0 in
17:33 12.8 °F 5.4 °F 1013.8 in WSW 16.9 mph 16.9 mph 61 % 0.0 in
17:35 12.8 °F 5.4 °F 1013.8 in WSW 16.9 mph 16.9 mph 61 % 0.0 in
17:39 12.8 °F 5.4 °F 1013.8 in WSW 16.9 mph 16.9 mph 61 % 0.0 in
17:44 12.8 °F 5.4 °F 1013.8 in WSW 16.9 mph 16.9 mph 61 % 0.0 in
17:45 12.8 °F 5.4 °F 1013.8 in WSW 16.9 mph 16.9 mph 61 % 0.0 in
17:50 12.8 °F 5.4 °F 1013.8 in WSW 16.9 mph 16.9 mph 61 % 0.0 in
17:55 12.8 °F 5.4 °F 1013.8 in WSW 16.9 mph 16.9 mph 61 % 0.0 in
17:56 12.8 °F 5.4 °F 1013.8 in WSW 16.9 mph 16.9 mph 61 % 0.0 in
18:01 12.8 °F 5.4 °F 1013.8 in WSW 16.9 mph 16.9 mph 61 % 0.0 in
18:03 12.8 °F 5.4 °F 1013.8 in WSW 16.9 mph 16.9 mph 61 % 0.0 in
18:06 12.8 °F 5.4 °F 1013.8 in WSW 16.9 mph 16.9 mph 61 % 0.0 in
18:11 12.8 °F 5.4 °F 1013.8 in WSW 16.9 mph 16.9 mph 61 % 0.0 in
18:16 12.8 °F 5.4 °F 1013.8 in WSW 16.9 mph 16.9 mph 61 % 0.0 in
18:17 12.8 °F 5.4 °F 1013.8 in WSW 16.9 mph 16.9 mph 61 % 0.0 in
18:22 12.8 °F 5.4 °F 1013.8 in WSW 16.9 mph 16.9 mph 61 % 0.0 in
18:25 12.8 °F 5.4 °F 1013.8 in WSW 16.9 mph 16.9 mph 61 % 0.0 in
18:30 12.8 °F 5.4 °F 1013.8 in WSW 16.9 mph 16.9 mph 61 % 0.0 in
18:35 12.8 °F 5.4 °F 1013.8 in WSW 16.9 mph 16.9 mph 61 % 0.0 in
18:40 12.8 °F 5.4 °F 1013.8 in WSW 16.9 mph 16.9 mph 61 % 0.0 in
18:45 12.8 °F 5.4 °F 1013.8 in WSW 16.9 mph 16.9 mph 61 % 0.0 in
18:50 12.8 °F 5.4 °F 1013.8 in WSW 16.9 mph 16.9 mph 61 % 0.0 in
18:55 12.8 °F 5.4 °F 1013.8 in WSW 16.9 mph 16.9 mph 61 % 0.0 in
19:00 12.8 °F 5.4 °F 1013.8 in WSW 16.9 mph 16.9 mph 61 % 0.0 in
19:05 12.8 °F 5.4 °F 1013.8 in WSW 16.9 mph 16.9 mph 61 % 0.0 in
19:10 12.8 °F 5.4 °F 1013.8 in WSW 16.9 mph 16.9 mph 61 % 0.0 in
19:15 12.8 °F 5.4 °F 1013.8 in WSW 16.9 mph 16.9 mph 61 % 0.0 in
19:18 12.8 °F 5.4 °F 1013.8 in WSW 16.9 mph 16.9 mph 61 % 0.0 in
19:20 12.8 °F 5.4 °F 1013.8 in WSW 16.9 mph 16.9 mph 61 % 0.0 in
19:25 12.8 °F 5.4 °F 1013.8 in WSW 16.9 mph 16.9 mph 61 % 0.0 in
19:30 12.8 °F 5.4 °F 1013.8 in WSW 16.9 mph 16.9 mph 61 % 0.0 in
19:35 12.8 °F 5.4 °F 1013.8 in WSW 16.9 mph 16.9 mph 61 % 0.0 in
19:40 12.8 °F 5.4 °F 1013.8 in WSW 16.9 mph 16.9 mph 61 % 0.0 in
19:45 12.8 °F 5.4 °F 1013.8 in WSW 16.9 mph 16.9 mph 61 % 0.0 in
19:50 12.8 °F 5.4 °F 1013.8 in WSW 16.9 mph 16.9 mph 61 % 0.0 in
19:55 12.8 °F 5.4 °F 1013.8 in WSW 16.9 mph 16.9 mph 61 % 0.0 in
20:00 12.8 °F 5.4 °F 1013.8 in WSW 16.9 mph 16.9 mph 61 % 0.0 in
20:05 12.8 °F 5.4 °F 1013.8 in WSW 16.9 mph 16.9 mph 61 % 0.0 in
20:15 12.8 °F 5.4 °F 1013.8 in WSW 16.9 mph 16.9 mph 61 % 0.0 in
20:20 12.8 °F 5.4 °F 1013.8 in WSW 16.9 mph 16.9 mph 61 % 0.0 in
20:22 12.8 °F 5.4 °F 1013.8 in WSW 16.9 mph 16.9 mph 61 % 0.0 in
20:25 12.8 °F 5.4 °F 1013.8 in WSW 16.9 mph 16.9 mph 61 % 0.0 in
20:30 12.8 °F 5.4 °F 1013.8 in WSW 16.9 mph 16.9 mph 61 % 0.0 in
20:35 12.8 °F 5.4 °F 1013.8 in WSW 16.9 mph 16.9 mph 61 % 0.0 in
20:40 12.8 °F 5.4 °F 1013.8 in WSW 16.9 mph 16.9 mph 61 % 0.0 in
20:45 12.8 °F 5.4 °F 1013.8 in WSW 16.9 mph 16.9 mph 61 % 0.0 in
20:49 12.8 °F 5.4 °F 1013.8 in WSW 16.9 mph 16.9 mph 61 % 0.0 in
20:50 12.8 °F 5.4 °F 1013.8 in WSW 16.9 mph 16.9 mph 61 % 0.0 in
20:55 12.8 °F 5.4 °F 1013.8 in WSW 16.9 mph 16.9 mph 61 % 0.0 in
21:00 12.8 °F 5.4 °F 1013.8 in WSW 16.9 mph 16.9 mph 61 % 0.0 in
21:05 12.8 °F 5.4 °F 1013.8 in WSW 16.9 mph 16.9 mph 61 % 0.0 in
21:10 12.8 °F 5.4 °F 1013.8 in WSW 16.9 mph 16.9 mph 61 % 0.0 in
21:15 12.8 °F 5.4 °F 1013.8 in WSW 16.9 mph 16.9 mph 61 % 0.0 in
21:20 12.8 °F 5.4 °F 1013.8 in WSW 16.9 mph 16.9 mph 61 % 0.0 in
21:25 12.8 °F 5.4 °F 1013.8 in WSW 16.9 mph 16.9 mph 61 % 0.0 in
21:27 12.8 °F 5.4 °F 1013.8 in WSW 16.9 mph 16.9 mph 61 % 0.0 in
21:30 12.8 °F 5.4 °F 1013.8 in WSW 16.9 mph 16.9 mph 61 % 0.0 in
21:35 12.8 °F 5.4 °F 1013.8 in WSW 16.9 mph 16.9 mph 61 % 0.0 in
21:40 12.8 °F 5.4 °F 1013.8 in WSW 16.9 mph 16.9 mph 61 % 0.0 in
21:42 12.8 °F 5.4 °F 1013.8 in WSW 16.9 mph 16.9 mph 61 % 0.0 in
21:45 9.5 °F 4.7 °F 1007.0 in Calm     72 % 0.0 in
21:47 12.8 °F 5.4 °F 1013.8 in WSW 16.9 mph 16.9 mph 61 % 0.0 in
21:52 12.8 °F 5.4 °F 1013.8 in WSW 16.9 mph 16.9 mph 61 % 0.0 in
21:55 9.4 °F 4.8 °F 1007.0 in Calm   3.2 mph 73 % 0.0 in
21:56 12.8 °F 5.4 °F 1013.8 in WSW 16.9 mph 16.9 mph 61 % 0.0 in
22:01 12.8 °F 5.4 °F 1013.8 in WSW 16.9 mph 16.9 mph 61 % 0.0 in
22:05 9.2 °F 4.8 °F 1006.0 in Calm   3.2 mph 74 % 0.0 in
22:06 12.8 °F 5.4 °F 1013.8 in WSW 16.9 mph 16.9 mph 61 % 0.0 in
22:08 12.8 °F 5.4 °F 1013.8 in WSW 16.9 mph 16.9 mph 61 % 0.0 in
22:13 12.8 °F 5.4 °F 1013.8 in WSW 16.9 mph 16.9 mph 61 % 0.0 in
22:14 12.8 °F 5.4 °F 1013.8 in WSW 16.9 mph 16.9 mph 61 % 0.0 in
22:15 9.2 °F 4.6 °F 1006.0 in Calm   3.2 mph 73 % 0.0 in
22:19 12.8 °F 5.4 °F 1013.8 in WSW 16.9 mph 16.9 mph 61 % 0.0 in
22:22 12.8 °F 5.4 °F 1013.8 in WSW 16.9 mph 16.9 mph 61 % 0.0 in
22:24 12.8 °F 5.4 °F 1013.8 in WSW 16.9 mph 16.9 mph 61 % 0.0 in
22:25 9.4 °F 4.8 °F 1006.0 in WSW 3.2 mph 3.2 mph 73 % 0.0 in
22:29 12.8 °F 5.4 °F 1013.8 in WSW 16.9 mph 16.9 mph 61 % 0.0 in
22:34 12.8 °F 5.4 °F 1013.8 in WSW 16.9 mph 16.9 mph 61 % 0.0 in
22:35 9.2 °F 4.8 °F 1006.0 in Calm   6.4 mph 74 % 0.0 in
22:39 12.8 °F 5.4 °F 1013.8 in WSW 16.9 mph 16.9 mph 61 % 0.0 in
22:44 12.8 °F 5.4 °F 1013.8 in WSW 16.9 mph 16.9 mph 61 % 0.0 in
22:45 9.2 °F 5.0 °F 1006.0 in NE 1.6 mph 1.6 mph 75 % 0.0 in
22:49 12.8 °F 5.4 °F 1013.8 in WSW 16.9 mph 16.9 mph 61 % 0.0 in
22:54 12.8 °F 5.4 °F 1013.8 in WSW 16.9 mph 16.9 mph 61 % 0.0 in
22:55 9.1 °F 4.9 °F 1005.0 in ENE 3.2 mph 3.2 mph 75 % 0.0 in
22:59 9.7 °F 3.7 °F 1009.0 in SW 16.7 mph 16.7 mph 66 % 0.0 in
23:04 9.7 °F 3.9 °F 1009.0 in WSW 2.6 mph 2.6 mph 67 % 0.0 in
23:05 8.7 °F 4.5 °F 1006.0 in East 1.6 mph 3.2 mph 75 % 0.0 in
23:09 9.9 °F 3.8 °F 1009.0 in WSW 4.7 mph 4.7 mph 66 % 0.0 in
23:14 10.2 °F 4.3 °F 1008.0 in WNW 7.4 mph 7.4 mph 67 % 0.0 in
23:15 8.5 °F 4.5 °F 1006.0 in East 3.2 mph 4.8 mph 76 % 0.0 in
23:19 10.5 °F 4.6 °F 1008.0 in WSW 3.7 mph 3.7 mph 67 % 0.0 in
23:24 10.6 °F 4.7 °F 1008.0 in SSW 3.7 mph 3.7 mph 67 % 0.0 in
23:25 8.5 °F 4.3 °F 1006.0 in Calm   4.8 mph 75 % 0.0 in
23:29 10.8 °F 5.1 °F 1008.0 in WNW 3.5 mph 3.5 mph 68 % 0.0 in
23:34 11.0 °F 5.3 °F 1008.0 in WNW 3.7 mph 3.7 mph 68 % 0.0 in
23:35 8.2 °F 4.1 °F 1006.0 in Calm   4.8 mph 75 % 0.0 in
23:39 11.1 °F 5.4 °F 1008.0 in WNW 3.7 mph 3.7 mph 68 % 0.0 in
23:45 8.1 °F 4.1 °F 1006.0 in West 1.6 mph 3.2 mph 76 % 0.0 in
23:54 11.1 °F 5.4 °F 1008.0 in NNE 3.7 mph 3.7 mph 68 % 0.0 in
23:55 8.1 °F 4.1 °F 1005.0 in WSW 1.6 mph 4.8 mph 76 % 0.0 in
23:59 10.4 °F 4.6 °F 1008.0 in NNE 2.3 mph 2.3 mph 67 % 0.0 in
Meteo Sesrovires
Elogis d' Weather Underground - 2 mb

Guio original per  Jim McMurry - jmcmurry@mwt.net Adaptat per a la plantilla per  Wim van der Kuil - Leuven-Template.eu

Trobareu la nostra informacio del temps tambe a:

Weather Underground

AWEKAS